createdAt,value
2022-08-05T00:00:13.038Z,68.56
2022-08-05T00:02:43.821Z,69.21
2022-08-05T00:05:27.081Z,69.19
2022-08-05T00:08:04.628Z,69.26
2022-08-05T00:10:31.191Z,70.37
2022-08-05T00:12:57.619Z,69.75
2022-08-05T00:15:55.832Z,70.06
2022-08-05T00:18:22.655Z,70.09
2022-08-05T00:20:50.377Z,70.13
2022-08-05T00:23:17.217Z,70.42
2022-08-05T00:25:57.628Z,70.77
2022-08-05T00:28:29.585Z,70.53
2022-08-05T00:30:56.271Z,70.20
2022-08-05T00:34:56.345Z,70.64
2022-08-05T00:37:09.007Z,70.63
2022-08-05T00:39:02.359Z,70.46
2022-08-05T00:41:46.859Z,70.12
2022-08-05T00:44:18.860Z,70.41
2022-08-05T00:46:47.388Z,70.12
2022-08-05T00:49:20.803Z,69.53
2022-08-05T00:51:52.029Z,69.01
2022-08-05T00:54:18.816Z,69.18
2022-08-05T00:56:51.507Z,69.35
2022-08-05T00:59:18.295Z,69.30
2022-08-05T01:01:48.550Z,69.27
2022-08-05T01:04:15.806Z,69.72
2022-08-05T01:06:43.725Z,69.70
2022-08-05T01:09:17.358Z,69.87
2022-08-05T01:11:48.879Z,69.22
2022-08-05T01:14:27.933Z,69.71
2022-08-05T01:17:16.642Z,69.85
2022-08-05T01:20:01.746Z,70.23
2022-08-05T01:22:51.463Z,69.70
2022-08-05T01:25:24.770Z,69.68
2022-08-05T01:28:37.789Z,69.76
2022-08-05T01:31:21.274Z,69.83
2022-08-05T01:34:03.232Z,70.30
2022-08-05T01:36:32.960Z,70.44
2022-08-05T01:39:00.988Z,69.88
2022-08-05T01:41:31.234Z,69.86
2022-08-05T01:43:59.268Z,69.69
2022-08-05T01:46:42.077Z,69.72
2022-08-05T01:49:23.840Z,69.69
2022-08-05T01:51:54.192Z,69.83
2022-08-05T01:54:20.591Z,70.23
2022-08-05T01:58:13.647Z,69.62
2022-08-05T01:59:40.777Z,69.51
2022-08-05T02:02:14.107Z,69.50
2022-08-05T02:04:43.051Z,69.15
2022-08-05T02:07:12.907Z,69.74
2022-08-05T02:09:49.019Z,69.98
2022-08-05T02:12:52.412Z,70.14
2022-08-05T02:15:24.310Z,70.31
2022-08-05T02:18:28.318Z,69.81
2022-08-05T02:20:52.834Z,70.86
2022-08-05T02:23:23.901Z,69.97
2022-08-05T02:25:52.360Z,69.75
2022-08-05T02:28:28.864Z,70.63
2022-08-05T02:31:06.119Z,70.42
2022-08-05T02:33:41.944Z,70.08
2022-08-05T02:36:13.747Z,70.15
2022-08-05T02:38:52.858Z,69.78
2022-08-05T02:41:21.437Z,70.40
2022-08-05T02:44:06.539Z,70.37
2022-08-05T02:46:43.932Z,70.10
2022-08-05T02:49:26.360Z,70.80
2022-08-05T02:52:04.088Z,71.08
2022-08-05T02:54:35.007Z,71.01
2022-08-05T02:57:10.410Z,71.09
2022-08-05T02:59:54.133Z,71.66
2022-08-05T03:02:23.302Z,71.92
2022-08-05T03:04:55.208Z,71.89
2022-08-05T03:07:48.519Z,72.03
2022-08-05T03:10:09.522Z,72.04
2022-08-05T03:12:39.897Z,72.32
2022-08-05T03:15:10.240Z,72.24
2022-08-05T03:17:41.574Z,71.77
2022-08-05T03:20:10.269Z,71.89
2022-08-05T03:22:36.925Z,72.13
2022-08-05T03:25:32.880Z,71.50
2022-08-05T03:27:59.011Z,71.78
2022-08-05T03:30:33.443Z,72.12
2022-08-05T03:33:01.996Z,72.00
2022-08-05T03:35:29.030Z,71.68
2022-08-05T03:38:02.660Z,72.34
2022-08-05T03:40:32.150Z,71.48
2022-08-05T03:43:15.659Z,71.95
2022-08-05T03:45:57.084Z,71.75
2022-08-05T03:48:23.911Z,72.24
2022-08-05T03:51:04.873Z,71.67
2022-08-05T03:55:53.958Z,71.63
2022-08-05T03:56:46.443Z,71.60
2022-08-05T03:59:29.188Z,72.07
2022-08-05T04:02:17.299Z,71.57
2022-08-05T04:05:00.957Z,71.81
2022-08-05T04:07:27.792Z,71.67
2022-08-05T04:09:59.665Z,71.73
2022-08-05T04:12:29.572Z,72.24
2022-08-05T04:14:58.148Z,72.75
2022-08-05T04:17:25.341Z,72.31
2022-08-05T04:20:37.856Z,72.89
2022-08-05T04:23:12.642Z,72.40
2022-08-05T04:25:57.556Z,71.53
2022-08-05T04:28:31.001Z,72.06
2022-08-05T04:31:01.016Z,72.36
2022-08-05T04:33:54.414Z,71.64
2022-08-05T04:36:38.222Z,71.60
2022-08-05T04:39:01.888Z,71.91
2022-08-05T04:41:36.925Z,72.07
2022-08-05T04:44:09.289Z,72.17
2022-08-05T04:46:36.546Z,72.17
2022-08-05T04:49:02.984Z,71.62
2022-08-05T04:51:30.537Z,71.65
2022-08-05T04:53:57.291Z,71.63
2022-08-05T04:56:34.421Z,71.54
2022-08-05T04:59:14.034Z,72.00
2022-08-05T05:02:08.196Z,71.68
2022-08-05T05:04:38.194Z,71.69
2022-08-05T05:07:05.216Z,71.34
2022-08-05T05:09:37.422Z,71.05
2022-08-05T05:12:05.145Z,71.11
2022-08-05T05:14:32.757Z,71.15
2022-08-05T05:17:03.378Z,71.06
2022-08-05T05:19:39.572Z,71.05
2022-08-05T05:22:24.219Z,71.13
2022-08-05T05:24:57.713Z,71.49
2022-08-05T05:27:41.773Z,71.33
2022-08-05T05:30:30.593Z,72.17
2022-08-05T05:33:00.407Z,71.75
2022-08-05T05:35:29.125Z,70.99
2022-08-05T05:38:02.925Z,71.08
2022-08-05T05:40:32.021Z,70.50
2022-08-05T05:42:59.309Z,70.17
2022-08-05T05:45:25.978Z,70.73
2022-08-05T05:48:05.689Z,70.25
2022-08-05T05:50:35.654Z,70.60
2022-08-05T05:53:21.285Z,70.68
2022-08-05T05:55:52.178Z,70.34
2022-08-05T05:58:31.775Z,70.28
2022-08-05T06:01:12.153Z,70.40
2022-08-05T06:03:53.605Z,69.92
2022-08-05T06:06:28.106Z,69.61
2022-08-05T06:08:58.261Z,69.67
2022-08-05T06:11:24.859Z,69.45
2022-08-05T06:13:54.001Z,69.28
2022-08-05T06:16:30.953Z,69.03
2022-08-05T06:19:01.284Z,68.66
2022-08-05T06:21:36.554Z,68.30
2022-08-05T06:24:04.492Z,68.20
2022-08-05T06:26:33.939Z,67.42
2022-08-05T06:29:03.700Z,67.64
2022-08-05T06:31:33.585Z,66.36
2022-08-05T06:34:07.136Z,66.36
2022-08-05T06:36:56.709Z,64.52
2022-08-05T06:39:22.248Z,64.05
2022-08-05T06:41:53.446Z,63.65
2022-08-05T06:44:19.877Z,63.54
2022-08-05T06:46:50.860Z,62.85
2022-08-05T06:49:17.696Z,61.15
2022-08-05T06:51:45.559Z,60.74
2022-08-05T06:54:18.240Z,60.50
2022-08-05T06:56:55.026Z,59.37
2022-08-05T06:59:38.498Z,58.71
2022-08-05T07:02:05.404Z,58.74
2022-08-05T07:04:31.797Z,58.24
2022-08-05T07:06:59.563Z,57.45
2022-08-05T07:09:26.064Z,57.72
2022-08-05T07:12:00.323Z,57.40
2022-08-05T07:14:45.861Z,56.66
2022-08-05T07:18:01.764Z,56.27
2022-08-05T07:22:45.781Z,56.50
2022-08-05T07:25:55.316Z,55.89
2022-08-05T07:28:07.354Z,55.61
2022-08-05T07:30:39.530Z,53.98
2022-08-05T07:33:15.503Z,53.36
2022-08-05T07:36:03.190Z,53.00
2022-08-05T07:38:33.656Z,52.83
2022-08-05T07:42:08.330Z,51.25
2022-08-05T07:43:57.934Z,52.71
2022-08-05T07:46:29.037Z,52.65
2022-08-05T07:49:01.878Z,51.80
2022-08-05T07:51:36.949Z,52.39
2022-08-05T07:54:05.210Z,52.43
2022-08-05T07:57:01.155Z,52.56
2022-08-05T07:59:17.993Z,51.46
2022-08-05T08:01:51.669Z,51.68
2022-08-05T08:04:24.404Z,51.44
2022-08-05T08:07:05.471Z,51.67
2022-08-05T08:09:33.752Z,51.61
2022-08-05T08:12:09.026Z,51.15
2022-08-05T08:14:42.096Z,50.77
2022-08-05T08:17:15.981Z,48.44
2022-08-05T08:20:22.727Z,48.56
2022-08-05T08:22:35.084Z,47.80
2022-08-05T08:25:02.779Z,47.54
2022-08-05T08:27:40.185Z,45.99
2022-08-05T08:30:28.589Z,45.70
2022-08-05T08:33:02.542Z,45.17
2022-08-05T08:35:35.107Z,45.71
2022-08-05T08:38:07.766Z,45.22
2022-08-05T08:40:35.237Z,45.13
2022-08-05T08:45:16.839Z,45.40
2022-08-05T08:45:52.993Z,44.78
2022-08-05T08:48:36.080Z,43.37
2022-08-05T08:51:54.475Z,44.26
2022-08-05T08:53:53.605Z,44.66
2022-08-05T08:56:22.215Z,43.52
2022-08-05T08:58:49.559Z,42.09
2022-08-05T09:01:18.820Z,43.44
2022-08-05T09:03:46.977Z,42.71
2022-08-05T09:06:17.237Z,42.12
2022-08-05T09:08:46.809Z,42.12
2022-08-05T09:11:14.769Z,41.15
2022-08-05T09:14:00.871Z,40.56
2022-08-05T09:16:28.688Z,39.76
2022-08-05T09:18:55.759Z,40.69
2022-08-05T09:22:22.447Z,40.60
2022-08-05T09:24:14.615Z,40.84
2022-08-05T09:26:43.554Z,40.20
2022-08-05T09:29:10.273Z,40.66
2022-08-05T09:32:42.167Z,42.05
2022-08-05T09:34:23.262Z,42.05
2022-08-05T09:36:55.186Z,41.65
2022-08-05T09:39:24.588Z,42.53
2022-08-05T09:42:08.415Z,42.04
2022-08-05T09:44:51.229Z,41.68
2022-08-05T09:47:22.882Z,41.54
2022-08-05T09:50:00.638Z,42.42
2022-08-05T09:52:29.944Z,41.83
2022-08-05T09:55:57.086Z,38.43
2022-08-05T09:57:59.700Z,39.72
2022-08-05T10:00:26.666Z,39.62
2022-08-05T10:02:54.898Z,39.99
2022-08-05T10:05:26.978Z,38.21
2022-08-05T10:08:35.880Z,38.06
2022-08-05T10:10:45.501Z,37.31
2022-08-05T10:13:31.813Z,36.22
2022-08-05T10:16:37.804Z,35.94
2022-08-05T10:19:10.135Z,35.74
2022-08-05T10:21:40.136Z,35.35
2022-08-05T10:24:10.680Z,34.86
2022-08-05T10:26:37.907Z,33.54
2022-08-05T10:29:23.904Z,33.92
2022-08-05T10:32:52.563Z,33.66
2022-08-05T10:34:53.808Z,33.80
2022-08-05T10:37:21.006Z,32.65
2022-08-05T10:39:58.978Z,32.95
2022-08-05T10:42:33.781Z,32.85
2022-08-05T10:45:01.753Z,33.64
2022-08-05T10:47:33.221Z,33.68
2022-08-05T10:50:32.695Z,34.24
2022-08-05T10:53:01.003Z,34.46
2022-08-05T10:55:30.243Z,35.02
2022-08-05T10:58:09.760Z,34.19
2022-08-05T11:00:42.287Z,34.75
2022-08-05T11:03:25.313Z,35.26
2022-08-05T11:06:15.449Z,35.13
2022-08-05T11:09:13.217Z,35.22
2022-08-05T11:11:53.243Z,36.50
2022-08-05T11:18:07.390Z,33.43
2022-08-05T11:20:37.321Z,34.52
2022-08-05T11:23:33.615Z,35.35
2022-08-05T11:26:17.166Z,35.64
2022-08-05T11:28:56.073Z,36.56
2022-08-05T11:31:56.713Z,37.38
2022-08-05T11:34:17.206Z,38.50
2022-08-05T11:36:52.595Z,38.86
2022-08-05T11:39:49.036Z,39.10
2022-08-05T11:42:18.343Z,37.68
2022-08-05T11:44:53.928Z,36.90
2022-08-05T11:47:48.327Z,38.35
2022-08-05T11:50:09.389Z,38.46
2022-08-05T11:52:35.837Z,38.83
2022-08-05T11:55:07.647Z,39.86
2022-08-05T11:58:08.334Z,40.82
2022-08-05T12:00:31.040Z,42.50
2022-08-05T12:02:57.652Z,41.99
2022-08-05T12:05:32.327Z,42.62
2022-08-05T12:08:10.087Z,42.86
2022-08-05T12:10:45.458Z,43.54
2022-08-05T12:13:16.471Z,44.09
2022-08-05T12:15:44.963Z,44.14
2022-08-05T12:18:12.346Z,43.52
2022-08-05T12:20:39.261Z,44.93
2022-08-05T12:23:12.507Z,44.30
2022-08-05T12:25:56.700Z,43.81
2022-08-05T12:28:50.098Z,44.56
2022-08-05T12:31:23.330Z,44.16
2022-08-05T12:34:01.475Z,43.88
2022-08-05T12:36:30.394Z,44.62
2022-08-05T12:38:58.582Z,43.10
2022-08-05T12:41:34.188Z,42.62
2022-08-05T12:44:03.615Z,42.11
2022-08-05T12:46:31.626Z,42.40
2022-08-05T12:48:59.687Z,42.97
2022-08-05T12:52:14.006Z,43.77
2022-08-05T12:54:36.696Z,42.44
2022-08-05T12:57:09.209Z,41.05
2022-08-05T13:01:56.959Z,40.48
2022-08-05T13:02:41.848Z,40.15
2022-08-05T13:05:12.618Z,41.18
2022-08-05T13:08:00.030Z,40.63
2022-08-05T13:10:28.688Z,40.98
2022-08-05T13:12:58.028Z,41.25
2022-08-05T13:15:41.782Z,40.20
2022-08-05T13:18:18.861Z,39.72
2022-08-05T13:20:47.115Z,38.88
2022-08-05T13:23:13.597Z,38.94
2022-08-05T13:25:52.837Z,38.15
2022-08-05T13:28:26.857Z,38.80
2022-08-05T13:30:53.690Z,39.23
2022-08-05T13:34:24.912Z,38.96
2022-08-05T13:36:09.309Z,40.12
2022-08-05T13:38:38.496Z,40.05
2022-08-05T13:41:10.706Z,39.74
2022-08-05T13:43:43.989Z,39.63
2022-08-05T13:46:12.589Z,38.65
2022-08-05T13:48:57.112Z,35.72
2022-08-05T13:51:40.397Z,34.11
2022-08-05T13:54:13.108Z,31.60
2022-08-05T13:56:45.317Z,31.17
2022-08-05T13:59:20.277Z,31.75
2022-08-05T14:01:59.175Z,30.98
2022-08-05T14:04:50.594Z,31.75
2022-08-05T14:07:59.815Z,30.01
2022-08-05T14:10:19.270Z,31.55
2022-08-05T14:12:54.940Z,30.80
2022-08-05T14:16:06.038Z,30.54
2022-08-05T14:18:14.833Z,29.54
2022-08-05T14:20:47.203Z,31.33
2022-08-05T14:23:18.920Z,32.06
2022-08-05T14:25:53.806Z,32.81
2022-08-05T14:28:26.216Z,34.99
2022-08-05T14:30:53.674Z,37.08
2022-08-05T14:33:22.726Z,36.76
2022-08-05T14:35:50.419Z,35.53
2022-08-05T14:38:31.592Z,34.75
2022-08-05T14:41:01.492Z,34.27
2022-08-05T14:43:59.058Z,33.21
2022-08-05T14:46:18.819Z,33.43
2022-08-05T14:48:49.878Z,34.48
2022-08-05T14:51:17.564Z,33.35
2022-08-05T14:53:44.935Z,34.49
2022-08-05T14:56:14.452Z,35.96
2022-08-05T14:58:53.296Z,37.99
2022-08-05T15:01:24.289Z,39.07
2022-08-05T15:04:09.950Z,40.23
2022-08-05T15:06:38.530Z,41.34
2022-08-05T15:09:06.936Z,41.18
2022-08-05T15:11:51.323Z,41.76
2022-08-05T15:14:35.097Z,41.89
2022-08-05T15:17:09.850Z,43.18
2022-08-05T15:19:55.326Z,43.29
2022-08-05T15:22:21.926Z,42.26
2022-08-05T15:24:53.975Z,41.41
2022-08-05T15:27:20.391Z,42.36
2022-08-05T15:29:46.981Z,41.51
2022-08-05T15:32:16.416Z,40.57
2022-08-05T15:34:43.135Z,40.42
2022-08-05T15:37:14.703Z,41.41
2022-08-05T15:41:00.647Z,41.72
2022-08-05T15:42:55.179Z,41.17
2022-08-05T15:45:15.225Z,41.16
2022-08-05T15:47:42.787Z,42.50
2022-08-05T15:50:13.947Z,42.89
2022-08-05T15:52:54.575Z,41.91
2022-08-05T15:55:24.810Z,41.11
2022-08-05T15:58:08.834Z,40.01
2022-08-05T16:00:57.084Z,38.32
2022-08-05T16:03:21.834Z,38.09
2022-08-05T16:05:52.415Z,39.88
2022-08-05T16:08:19.337Z,40.91
2022-08-05T16:10:45.804Z,40.26
2022-08-05T16:13:12.571Z,40.52
2022-08-05T16:15:51.687Z,39.87
2022-08-05T16:18:18.699Z,40.53
2022-08-05T16:20:46.236Z,38.82
2022-08-05T16:23:12.644Z,38.26
2022-08-05T16:25:39.292Z,36.43
2022-08-05T16:28:10.311Z,34.75
2022-08-05T16:30:37.004Z,34.14
2022-08-05T16:33:04.235Z,34.66
2022-08-05T16:35:32.042Z,34.32
2022-08-05T16:38:15.276Z,35.34
2022-08-05T16:40:51.668Z,35.50
2022-08-05T16:43:23.730Z,34.78
2022-08-05T16:46:07.878Z,34.29
2022-08-05T16:48:38.514Z,33.17
2022-08-05T16:51:10.215Z,33.30
2022-08-05T16:54:05.864Z,33.63
2022-08-05T16:56:29.318Z,34.02
2022-08-05T16:58:56.198Z,35.64
2022-08-05T17:01:24.328Z,37.41
2022-08-05T17:03:51.725Z,38.19
2022-08-05T17:06:18.211Z,39.41
2022-08-05T17:08:52.942Z,39.61
2022-08-05T17:11:23.838Z,40.52
2022-08-05T17:13:51.812Z,41.12
2022-08-05T17:16:32.504Z,43.53
2022-08-05T17:19:02.299Z,42.37
2022-08-05T17:21:35.746Z,42.78
2022-08-05T17:24:19.666Z,42.62
2022-08-05T17:26:50.753Z,43.49
2022-08-05T17:29:17.164Z,43.58
2022-08-05T17:31:58.198Z,43.14
2022-08-05T17:34:30.166Z,43.94
2022-08-05T17:36:59.653Z,44.62
2022-08-05T17:39:33.611Z,45.53
2022-08-05T17:42:19.658Z,44.96
2022-08-05T17:44:50.237Z,45.68
2022-08-05T17:47:21.798Z,46.39
2022-08-05T17:50:00.270Z,45.86
2022-08-05T17:52:49.728Z,46.49
2022-08-05T17:55:22.148Z,46.01
2022-08-05T17:57:50.338Z,45.88
2022-08-05T18:00:17.511Z,45.83
2022-08-05T18:02:47.104Z,45.19
2022-08-05T18:05:16.818Z,45.87
2022-08-05T18:07:44.478Z,45.37
2022-08-05T18:10:20.292Z,45.20
2022-08-05T18:12:47.307Z,45.59
2022-08-05T18:15:14.088Z,45.31
2022-08-05T18:18:00.524Z,45.48
2022-08-05T18:20:29.161Z,44.85
2022-08-05T18:22:58.699Z,44.76
2022-08-05T18:25:32.709Z,44.76
2022-08-05T18:27:59.861Z,45.75
2022-08-05T18:30:32.250Z,46.51
2022-08-05T18:33:00.482Z,46.24
2022-08-05T18:36:01.213Z,46.32
2022-08-05T18:38:19.304Z,46.34
2022-08-05T18:41:55.881Z,46.88
2022-08-05T18:43:42.987Z,47.43
2022-08-05T18:46:15.024Z,47.46
2022-08-05T18:48:42.168Z,47.83
2022-08-05T18:52:06.257Z,48.14
2022-08-05T18:54:14.292Z,48.02
2022-08-05T18:56:40.735Z,48.71
2022-08-05T18:59:44.173Z,48.73
2022-08-05T19:01:57.180Z,49.46
2022-08-05T19:04:25.062Z,49.80
2022-08-05T19:06:51.595Z,50.05
2022-08-05T19:09:20.127Z,50.47
2022-08-05T19:12:00.800Z,50.26
2022-08-05T19:14:44.536Z,49.88
2022-08-05T19:17:16.113Z,49.81
2022-08-05T19:19:47.069Z,50.34
2022-08-05T19:22:17.308Z,50.96
2022-08-05T19:24:55.811Z,51.40
2022-08-05T19:27:24.355Z,51.81
2022-08-05T19:29:57.163Z,51.78
2022-08-05T19:32:26.383Z,51.94
2022-08-05T19:34:55.782Z,52.33
2022-08-05T19:37:29.901Z,53.09
2022-08-05T19:40:12.722Z,53.38
2022-08-05T19:43:05.004Z,53.44
2022-08-05T19:45:30.629Z,53.65
2022-08-05T19:48:03.336Z,54.48
2022-08-05T19:50:35.005Z,55.03
2022-08-05T19:53:09.404Z,54.74
2022-08-05T19:56:14.579Z,56.11
2022-08-05T19:58:28.493Z,55.18
2022-08-05T20:00:56.482Z,55.64
2022-08-05T20:03:25.341Z,54.85
2022-08-05T20:05:56.378Z,55.08
2022-08-05T20:08:24.410Z,55.23
2022-08-05T20:10:57.792Z,55.17
2022-08-05T20:13:54.672Z,55.51
2022-08-05T20:16:10.693Z,55.29
2022-08-05T20:18:37.246Z,54.85
2022-08-05T20:21:05.261Z,54.78
2022-08-05T20:23:39.620Z,55.86
2022-08-05T20:26:17.297Z,54.94
2022-08-05T20:28:45.559Z,55.10
2022-08-05T20:31:12.116Z,55.14
2022-08-05T20:33:38.549Z,55.19
2022-08-05T20:36:16.406Z,55.13
2022-08-05T20:38:53.377Z,55.36
2022-08-05T20:41:26.843Z,54.49
2022-08-05T20:44:18.477Z,56.19
2022-08-05T20:46:55.650Z,55.72
2022-08-05T20:49:24.529Z,55.58
2022-08-05T20:51:53.901Z,55.89
2022-08-05T20:54:20.632Z,55.98
2022-08-05T20:56:50.268Z,55.58
2022-08-05T20:59:26.188Z,55.71
2022-08-05T21:01:53.603Z,56.59
2022-08-05T21:04:22.528Z,56.63
2022-08-05T21:06:55.984Z,56.54
2022-08-05T21:09:22.756Z,56.11
2022-08-05T21:12:10.491Z,56.19
2022-08-05T21:14:41.078Z,57.11
2022-08-05T21:17:10.372Z,57.10
2022-08-05T21:19:47.006Z,58.71
2022-08-05T21:22:18.292Z,58.29
2022-08-05T21:24:45.733Z,57.95
2022-08-05T21:27:15.488Z,58.66
2022-08-05T21:29:43.020Z,57.82
2022-08-05T21:32:17.170Z,59.17
2022-08-05T21:35:06.704Z,59.11
2022-08-05T21:37:33.113Z,59.43
2022-08-05T21:40:04.072Z,59.47
2022-08-05T21:42:44.537Z,59.20
2022-08-05T21:45:11.871Z,59.61
2022-08-05T21:47:56.649Z,58.87
2022-08-05T21:50:27.752Z,58.99
2022-08-05T21:53:04.472Z,59.92
2022-08-05T21:56:01.594Z,60.13
2022-08-05T21:58:19.572Z,60.33
2022-08-05T22:00:51.508Z,61.64
2022-08-05T22:03:18.346Z,61.68
2022-08-05T22:06:06.168Z,62.02
2022-08-05T22:08:34.708Z,62.47
2022-08-05T22:11:01.128Z,61.95
2022-08-05T22:14:32.285Z,62.22
2022-08-05T22:16:39.572Z,62.27
2022-08-05T22:19:00.429Z,62.04
2022-08-05T22:21:27.157Z,61.17
2022-08-05T22:24:39.400Z,61.73
2022-08-05T22:27:18.083Z,61.18
2022-08-05T22:29:44.484Z,61.39
2022-08-05T22:32:12.411Z,61.55
2022-08-05T22:34:43.997Z,62.21
2022-08-05T22:37:12.220Z,62.44
2022-08-05T22:39:38.708Z,62.96
2022-08-05T22:42:12.335Z,63.00
2022-08-05T22:44:48.624Z,62.71
2022-08-05T22:47:29.500Z,62.08
2022-08-05T22:50:23.249Z,61.92
2022-08-05T22:52:44.578Z,61.94
2022-08-05T22:55:19.092Z,62.50
2022-08-05T22:57:49.392Z,62.73
2022-08-05T23:00:18.333Z,62.98
2022-08-05T23:02:47.965Z,63.38
2022-08-05T23:05:15.302Z,64.26
2022-08-05T23:07:44.848Z,64.42
2022-08-05T23:10:12.429Z,64.74
2022-08-05T23:12:38.902Z,64.48
2022-08-05T23:15:09.083Z,64.42
2022-08-05T23:17:37.453Z,64.50
2022-08-05T23:20:10.457Z,64.65
2022-08-05T23:22:47.468Z,64.43
2022-08-05T23:25:17.041Z,64.65
2022-08-05T23:28:01.518Z,64.24
2022-08-05T23:30:29.099Z,64.43
2022-08-05T23:32:57.638Z,65.04
2022-08-05T23:35:25.157Z,64.08
2022-08-05T23:37:55.081Z,64.26
2022-08-05T23:40:27.230Z,64.14
2022-08-05T23:42:53.922Z,64.05
2022-08-05T23:45:20.412Z,64.19
2022-08-05T23:47:53.859Z,64.84
2022-08-05T23:50:26.503Z,64.77
2022-08-05T23:52:55.239Z,65.13
2022-08-05T23:55:22.252Z,65.23
2022-08-05T23:57:52.836Z,64.85
